sensor_id;sensor_type;location;lat;lon;timestamp;pressure;altitude;pressure_sealevel;temperature;humidity
69784;BME280;57054;51.978;4.498;2023-05-09T00:01:35;101769.66;;;14.07;96.65
69784;BME280;57054;51.978;4.498;2023-05-09T00:04:00;101774.06;;;14.07;96.32
69784;BME280;57054;51.978;4.498;2023-05-09T00:06:26;101774.97;;;14.06;96.51
69784;BME280;57054;51.978;4.498;2023-05-09T00:08:52;101770.59;;;14.06;96.58
69784;BME280;57054;51.978;4.498;2023-05-09T00:11:18;101774.13;;;14.05;96.88
69784;BME280;57054;51.978;4.498;2023-05-09T00:13:44;101761.81;;;14.06;96.45
69784;BME280;57054;51.978;4.498;2023-05-09T00:16:10;101760.97;;;14.05;96.92
69784;BME280;57054;51.978;4.498;2023-05-09T00:18:36;101765.31;;;14.06;96.81
69784;BME280;57054;51.978;4.498;2023-05-09T00:21:01;101767.09;;;14.06;96.72
69784;BME280;57054;51.978;4.498;2023-05-09T00:23:31;101753.91;;;14.06;96.89
69784;BME280;57054;51.978;4.498;2023-05-09T00:25:57;101760.13;;;14.05;96.88
69784;BME280;57054;51.978;4.498;2023-05-09T00:28:22;101748.66;;;14.06;96.51
69784;BME280;57054;51.978;4.498;2023-05-09T00:30:47;101746.00;;;14.06;96.79
69784;BME280;57054;51.978;4.498;2023-05-09T00:33:13;101747.78;;;14.05;96.98
69784;BME280;57054;51.978;4.498;2023-05-09T00:35:39;101744.31;;;14.05;96.92
69784;BME280;57054;51.978;4.498;2023-05-09T00:38:04;101736.41;;;14.05;96.89
69784;BME280;57054;51.978;4.498;2023-05-09T00:40:29;101739.03;;;14.05;96.78
69784;BME280;57054;51.978;4.498;2023-05-09T00:42:57;101728.50;;;14.05;96.68
69784;BME280;57054;51.978;4.498;2023-05-09T00:45:23;101724.16;;;14.04;96.66
69784;BME280;57054;51.978;4.498;2023-05-09T00:47:49;101721.50;;;14.04;96.66
69784;BME280;57054;51.978;4.498;2023-05-09T00:50:14;101719.81;;;14.02;96.67
69784;BME280;57054;51.978;4.498;2023-05-09T00:52:40;101718.03;;;14.03;96.42
69784;BME280;57054;51.978;4.498;2023-05-09T00:55:07;101712.78;;;14.03;96.53
69784;BME280;57054;51.978;4.498;2023-05-09T00:57:33;101709.28;;;14.02;96.52
69784;BME280;57054;51.978;4.498;2023-05-09T00:59:59;101707.50;;;14.03;96.52
69784;BME280;57054;51.978;4.498;2023-05-09T01:02:49;101705.72;;;14.04;96.61
69784;BME280;57054;51.978;4.498;2023-05-09T01:05:17;101691.75;;;14.01;96.39
69784;BME280;57054;51.978;4.498;2023-05-09T01:08:28;101681.22;;;14.01;96.72
69784;BME280;57054;51.978;4.498;2023-05-09T01:13:37;101680.38;;;14.01;96.70
69784;BME280;57054;51.978;4.498;2023-05-09T01:16:11;101671.53;;;14.02;96.52
69784;BME280;57054;51.978;4.498;2023-05-09T01:18:49;101681.22;;;14.01;96.27
69784;BME280;57054;51.978;4.498;2023-05-09T01:21:20;101668.97;;;14.00;96.70
69784;BME280;57054;51.978;4.498;2023-05-09T01:24:17;101666.31;;;14.00;96.57
69784;BME280;57054;51.978;4.498;2023-05-09T01:27:14;101661.06;;;14.00;96.50
69784;BME280;57054;51.978;4.498;2023-05-09T01:29:46;101655.78;;;14.00;96.24
69784;BME280;57054;51.978;4.498;2023-05-09T01:32:17;101655.78;;;14.00;96.36
69784;BME280;57054;51.978;4.498;2023-05-09T01:34:44;101651.47;;;13.99;96.83
69784;BME280;57054;51.978;4.498;2023-05-09T01:37:12;101653.25;;;13.99;96.50
69784;BME280;57054;51.978;4.498;2023-05-09T01:39:39;101648.88;;;13.98;97.05
69784;BME280;57054;51.978;4.498;2023-05-09T01:42:07;101651.53;;;13.98;96.96
69784;BME280;57054;51.978;4.498;2023-05-09T01:44:38;101648.09;;;13.96;97.31
69784;BME280;57054;51.978;4.498;2023-05-09T01:47:06;101641.91;;;13.97;97.23
69784;BME280;57054;51.978;4.498;2023-05-09T01:49:34;101631.47;;;13.95;97.61
69784;BME280;57054;51.978;4.498;2023-05-09T01:52:03;101630.53;;;13.96;97.52
69784;BME280;57054;51.978;4.498;2023-05-09T01:54:30;101628.81;;;13.95;97.33
69784;BME280;57054;51.978;4.498;2023-05-09T01:56:57;101630.53;;;13.96;97.54
69784;BME280;57054;51.978;4.498;2023-05-09T01:59:24;101623.56;;;13.95;97.39
69784;BME280;57054;51.978;4.498;2023-05-09T02:01:51;101619.13;;;13.96;97.20
69784;BME280;57054;51.978;4.498;2023-05-09T02:04:19;101616.56;;;13.94;97.51
69784;BME280;57054;51.978;4.498;2023-05-09T02:06:46;101619.13;;;13.96;97.31
69784;BME280;57054;51.978;4.498;2023-05-09T02:09:18;101613.88;;;13.96;97.28
69784;BME280;57054;51.978;4.498;2023-05-09T02:11:44;101613.88;;;13.96;97.13
69784;BME280;57054;51.978;4.498;2023-05-09T02:14:11;101611.22;;;13.96;97.36
69784;BME280;57054;51.978;4.498;2023-05-09T02:16:36;101608.59;;;13.96;96.97
69784;BME280;57054;51.978;4.498;2023-05-09T02:19:03;101603.34;;;13.96;97.20
69784;BME280;57054;51.978;4.498;2023-05-09T02:21:29;101604.25;;;13.95;97.00
69784;BME280;57054;51.978;4.498;2023-05-09T02:23:55;101606.03;;;13.94;96.98
69784;BME280;57054;51.978;4.498;2023-05-09T02:26:21;101603.41;;;13.94;97.21
69784;BME280;57054;51.978;4.498;2023-05-09T02:28:47;101599.91;;;13.94;97.25
69784;BME280;57054;51.978;4.498;2023-05-09T02:31:13;101598.13;;;13.94;97.24
69784;BME280;57054;51.978;4.498;2023-05-09T02:33:41;101598.19;;;13.93;97.29
69784;BME280;57054;51.978;4.498;2023-05-09T02:36:08;101597.28;;;13.94;96.99
69784;BME280;57054;51.978;4.498;2023-05-09T02:38:34;101597.34;;;13.92;97.08
69784;BME280;57054;51.978;4.498;2023-05-09T02:41:00;101589.44;;;13.92;96.95
69784;BME280;57054;51.978;4.498;2023-05-09T02:43:25;101586.81;;;13.92;97.00
69784;BME280;57054;51.978;4.498;2023-05-09T02:45:51;101580.69;;;13.92;96.98
69784;BME280;57054;51.978;4.498;2023-05-09T02:48:16;101578.13;;;13.90;97.35
69784;BME280;57054;51.978;4.498;2023-05-09T02:50:42;101568.44;;;13.91;97.00
69784;BME280;57054;51.978;4.498;2023-05-09T02:53:08;101568.44;;;13.91;96.97
69784;BME280;57054;51.978;4.498;2023-05-09T02:55:33;101569.34;;;13.90;97.08
69784;BME280;57054;51.978;4.498;2023-05-09T02:57:59;101563.25;;;13.89;97.50
69784;BME280;57054;51.978;4.498;2023-05-09T03:00:25;101565.88;;;13.89;97.30
69784;BME280;57054;51.978;4.498;2023-05-09T03:02:51;101565.88;;;13.89;97.33
69784;BME280;57054;51.978;4.498;2023-05-09T03:05:16;101565.88;;;13.89;97.16
69784;BME280;57054;51.978;4.498;2023-05-09T03:07:42;101562.38;;;13.89;97.45
69784;BME280;57054;51.978;4.498;2023-05-09T03:10:09;101564.09;;;13.90;97.59
69784;BME280;57054;51.978;4.498;2023-05-09T03:12:36;101567.66;;;13.89;97.45
69784;BME280;57054;51.978;4.498;2023-05-09T03:15:04;101564.19;;;13.88;97.86
69784;BME280;57054;51.978;4.498;2023-05-09T03:17:30;101554.56;;;13.87;97.85
69784;BME280;57054;51.978;4.498;2023-05-09T03:19:56;101555.41;;;13.88;98.05
69784;BME280;57054;51.978;4.498;2023-05-09T03:22:21;101553.72;;;13.87;98.44
69784;BME280;57054;51.978;4.498;2023-05-09T03:24:47;101556.34;;;13.87;98.37
69784;BME280;57054;51.978;4.498;2023-05-09T03:27:12;101545.81;;;13.87;98.68
69784;BME280;57054;51.978;4.498;2023-05-09T03:29:38;101544.97;;;13.86;98.80
69784;BME280;57054;51.978;4.498;2023-05-09T03:32:03;101537.97;;;13.85;98.94
69784;BME280;57054;51.978;4.498;2023-05-09T03:34:29;101533.59;;;13.84;99.06
69784;BME280;57054;51.978;4.498;2023-05-09T03:36:54;101524.81;;;13.85;99.21
69784;BME280;57054;51.978;4.498;2023-05-09T03:39:20;101520.44;;;13.84;98.90
69784;BME280;57054;51.978;4.498;2023-05-09T03:41:45;101519.59;;;13.83;99.24
69784;BME280;57054;51.978;4.498;2023-05-09T03:44:11;101519.59;;;13.83;99.07
69784;BME280;57054;51.978;4.498;2023-05-09T03:46:36;101516.97;;;13.83;99.29
69784;BME280;57054;51.978;4.498;2023-05-09T03:49:01;101517.03;;;13.82;99.52
69784;BME280;57054;51.978;4.498;2023-05-09T03:51:28;101511.75;;;13.82;99.44
69784;BME280;57054;51.978;4.498;2023-05-09T03:53:54;101514.41;;;13.82;99.58
69784;BME280;57054;51.978;4.498;2023-05-09T03:56:20;101509.13;;;13.82;99.74
69784;BME280;57054;51.978;4.498;2023-05-09T03:58:46;101506.50;;;13.82;99.74
69784;BME280;57054;51.978;4.498;2023-05-09T04:01:12;101503.88;;;13.82;99.58
69784;BME280;57054;51.978;4.498;2023-05-09T04:03:37;101497.75;;;13.81;100.00
69784;BME280;57054;51.978;4.498;2023-05-09T04:06:04;101500.38;;;13.81;100.00
69784;BME280;57054;51.978;4.498;2023-05-09T04:08:33;101495.19;;;13.80;100.00
69784;BME280;57054;51.978;4.498;2023-05-09T04:10:59;101492.50;;;13.81;100.00
69784;BME280;57054;51.978;4.498;2023-05-09T04:13:24;101496.03;;;13.80;100.00
69784;BME280;57054;51.978;4.498;2023-05-09T04:15:49;101495.19;;;13.80;100.00
69784;BME280;57054;51.978;4.498;2023-05-09T04:18:15;101488.22;;;13.79;100.00
69784;BME280;57054;51.978;4.498;2023-05-09T04:20:41;101490.75;;;13.80;100.00
69784;BME280;57054;51.978;4.498;2023-05-09T04:23:06;101488.13;;;13.80;100.00
69784;BME280;57054;51.978;4.498;2023-05-09T04:25:32;101488.13;;;13.80;100.00
69784;BME280;57054;51.978;4.498;2023-05-09T04:27:58;101485.44;;;13.82;100.00
69784;BME280;57054;51.978;4.498;2023-05-09T04:30:24;101480.22;;;13.80;100.00
69784;BME280;57054;51.978;4.498;2023-05-09T04:32:52;101484.59;;;13.81;100.00
69784;BME280;57054;51.978;4.498;2023-05-09T04:35:20;101475.84;;;13.81;100.00
69784;BME280;57054;51.978;4.498;2023-05-09T04:37:45;101473.28;;;13.79;100.00
69784;BME280;57054;51.978;4.498;2023-05-09T04:40:11;101467.94;;;13.81;100.00
69784;BME280;57054;51.978;4.498;2023-05-09T04:42:37;101466.22;;;13.80;100.00
69784;BME280;57054;51.978;4.498;2023-05-09T04:45:04;101464.44;;;13.80;100.00
69784;BME280;57054;51.978;4.498;2023-05-09T04:47:30;101456.53;;;13.80;100.00
69784;BME280;57054;51.978;4.498;2023-05-09T04:49:55;101448.75;;;13.79;100.00
69784;BME280;57054;51.978;4.498;2023-05-09T04:52:21;101448.75;;;13.79;100.00
69784;BME280;57054;51.978;4.498;2023-05-09T04:54:46;101447.00;;;13.78;100.00
69784;BME280;57054;51.978;4.498;2023-05-09T04:57:12;101436.47;;;13.78;100.00
69784;BME280;57054;51.978;4.498;2023-05-09T04:59:37;101437.34;;;13.78;100.00
69784;BME280;57054;51.978;4.498;2023-05-09T05:02:02;101437.34;;;13.78;100.00
69784;BME280;57054;51.978;4.498;2023-05-09T05:04:28;101436.47;;;13.78;100.00
69784;BME280;57054;51.978;4.498;2023-05-09T05:06:53;101431.22;;;13.78;100.00
69784;BME280;57054;51.978;4.498;2023-05-09T05:09:19;101430.38;;;13.77;100.00
69784;BME280;57054;51.978;4.498;2023-05-09T05:11:44;101436.47;;;13.78;100.00
69784;BME280;57054;51.978;4.498;2023-05-09T05:14:10;101428.59;;;13.78;100.00
69784;BME280;57054;51.978;4.498;2023-05-09T05:16:35;101425.09;;;13.77;100.00
69784;BME280;57054;51.978;4.498;2023-05-09T05:19:01;101430.38;;;13.77;100.00
69784;BME280;57054;51.978;4.498;2023-05-09T05:21:27;101428.59;;;13.78;100.00
69784;BME280;57054;51.978;4.498;2023-05-09T05:23:52;101426.88;;;13.77;100.00
69784;BME280;57054;51.978;4.498;2023-05-09T05:26:18;101418.97;;;13.77;100.00
69784;BME280;57054;51.978;4.498;2023-05-09T05:28:43;101417.28;;;13.76;100.00
69784;BME280;57054;51.978;4.498;2023-05-09T05:31:08;101417.22;;;13.77;100.00
69784;BME280;57054;51.978;4.498;2023-05-09T05:33:34;101416.34;;;13.77;100.00
69784;BME280;57054;51.978;4.498;2023-05-09T05:35:59;101413.69;;;13.77;100.00
69784;BME280;57054;51.978;4.498;2023-05-09T05:38:24;101414.59;;;13.77;100.00
69784;BME280;57054;51.978;4.498;2023-05-09T05:40:50;101416.34;;;13.77;100.00
69784;BME280;57054;51.978;4.498;2023-05-09T05:43:15;101412.00;;;13.76;100.00
69784;BME280;57054;51.978;4.498;2023-05-09T05:45:40;101412.84;;;13.76;100.00
69784;BME280;57054;51.978;4.498;2023-05-09T05:48:06;101411.16;;;13.75;100.00
69784;BME280;57054;51.978;4.498;2023-05-09T05:50:31;101409.38;;;13.76;100.00
69784;BME280;57054;51.978;4.498;2023-05-09T05:52:57;101405.03;;;13.75;100.00
69784;BME280;57054;51.978;4.498;2023-05-09T05:55:22;101413.81;;;13.75;100.00
69784;BME280;57054;51.978;4.498;2023-05-09T05:57:47;101399.75;;;13.75;100.00
69784;BME280;57054;51.978;4.498;2023-05-09T06:00:13;101400.63;;;13.75;100.00
69784;BME280;57054;51.978;4.498;2023-05-09T06:02:43;101398.00;;;13.75;100.00
69784;BME280;57054;51.978;4.498;2023-05-09T06:05:09;101395.38;;;13.75;100.00
69784;BME280;57054;51.978;4.498;2023-05-09T06:07:35;101398.84;;;13.76;100.00
69784;BME280;57054;51.978;4.498;2023-05-09T06:10:00;101400.63;;;13.75;100.00
69784;BME280;57054;51.978;4.498;2023-05-09T06:12:26;101385.75;;;13.74;100.00
69784;BME280;57054;51.978;4.498;2023-05-09T06:14:51;101387.47;;;13.75;100.00
69784;BME280;57054;51.978;4.498;2023-05-09T06:17:17;101385.75;;;13.74;100.00
69784;BME280;57054;51.978;4.498;2023-05-09T06:19:42;101385.75;;;13.74;100.00
69784;BME280;57054;51.978;4.498;2023-05-09T06:22:08;101379.66;;;13.74;100.00
69784;BME280;57054;51.978;4.498;2023-05-09T06:24:33;101387.53;;;13.74;100.00
69784;BME280;57054;51.978;4.498;2023-05-09T06:26:59;101384.97;;;13.72;100.00
69784;BME280;57054;51.978;4.498;2023-05-09T06:29:24;101376.13;;;13.73;100.00
69784;BME280;57054;51.978;4.498;2023-05-09T06:31:49;101378.75;;;13.73;100.00
69784;BME280;57054;51.978;4.498;2023-05-09T06:34:15;101372.66;;;13.73;100.00
69784;BME280;57054;51.978;4.498;2023-05-09T06:36:40;101371.75;;;13.74;100.00
69784;BME280;57054;51.978;4.498;2023-05-09T06:39:06;101374.38;;;13.74;100.00
69784;BME280;57054;51.978;4.498;2023-05-09T06:41:31;101358.59;;;13.74;100.00
69784;BME280;57054;51.978;4.498;2023-05-09T06:43:56;101368.16;;;13.75;100.00
69784;BME280;57054;51.978;4.498;2023-05-09T06:46:22;101362.91;;;13.75;100.00
69784;BME280;57054;51.978;4.498;2023-05-09T06:48:47;101367.31;;;13.74;100.00
69784;BME280;57054;51.978;4.498;2023-05-09T06:51:13;101360.28;;;13.75;100.00
69784;BME280;57054;51.978;4.498;2023-05-09T06:53:38;101356.81;;;13.74;100.00
69784;BME280;57054;51.978;4.498;2023-05-09T06:56:04;101348.91;;;13.74;100.00
69784;BME280;57054;51.978;4.498;2023-05-09T06:58:29;101349.75;;;13.75;100.00
69784;BME280;57054;51.978;4.498;2023-05-09T07:00:55;101341.91;;;13.73;100.00
69784;BME280;57054;51.978;4.498;2023-05-09T07:03:20;101342.00;;;13.72;100.00
69784;BME280;57054;51.978;4.498;2023-05-09T07:05:46;101329.81;;;13.69;100.00
69784;BME280;57054;51.978;4.498;2023-05-09T07:08:11;101324.56;;;13.69;100.00
69784;BME280;57054;51.978;4.498;2023-05-09T07:10:37;101322.78;;;13.70;100.00
69784;BME280;57054;51.978;4.498;2023-05-09T07:13:03;101326.28;;;13.70;100.00
69784;BME280;57054;51.978;4.498;2023-05-09T07:15:28;101310.50;;;13.70;100.00
69784;BME280;57054;51.978;4.498;2023-05-09T07:17:53;101309.63;;;13.70;100.00
69784;BME280;57054;51.978;4.498;2023-05-09T07:20:19;101308.72;;;13.71;100.00
69784;BME280;57054;51.978;4.498;2023-05-09T07:22:44;101308.72;;;13.71;100.00
69784;BME280;57054;51.978;4.498;2023-05-09T07:25:10;101298.97;;;13.73;100.00
69784;BME280;57054;51.978;4.498;2023-05-09T07:27:35;101300.69;;;13.74;100.00
69784;BME280;57054;51.978;4.498;2023-05-09T07:30:05;101299.72;;;13.75;100.00
69784;BME280;57054;51.978;4.498;2023-05-09T07:32:31;101290.94;;;13.76;100.00
69784;BME280;57054;51.978;4.498;2023-05-09T07:34:57;101289.06;;;13.78;100.00
69784;BME280;57054;51.978;4.498;2023-05-09T07:37:22;101293.31;;;13.80;100.00
69784;BME280;57054;51.978;4.498;2023-05-09T07:39:48;101285.44;;;13.80;100.00
69784;BME280;57054;51.978;4.498;2023-05-09T07:42:13;101285.34;;;13.82;100.00
69784;BME280;57054;51.978;4.498;2023-05-09T07:44:40;101273.91;;;13.83;100.00
69784;BME280;57054;51.978;4.498;2023-05-09T07:47:05;101270.44;;;13.82;100.00
69784;BME280;57054;51.978;4.498;2023-05-09T07:49:32;101272.97;;;13.84;100.00
69784;BME280;57054;51.978;4.498;2023-05-09T07:51:58;101276.47;;;13.85;100.00
69784;BME280;57054;51.978;4.498;2023-05-09T07:54:23;101272.06;;;13.85;100.00
69784;BME280;57054;51.978;4.498;2023-05-09T07:56:48;101261.47;;;13.87;100.00
69784;BME280;57054;51.978;4.498;2023-05-09T07:59:14;101262.31;;;13.87;100.00
69784;BME280;57054;51.978;4.498;2023-05-09T08:01:39;101257.88;;;13.88;100.00
69784;BME280;57054;51.978;4.498;2023-05-09T08:04:04;101251.72;;;13.89;100.00
69784;BME280;57054;51.978;4.498;2023-05-09T08:06:31;101247.28;;;13.89;100.00
69784;BME280;57054;51.978;4.498;2023-05-09T08:08:57;101247.28;;;13.89;100.00
69784;BME280;57054;51.978;4.498;2023-05-09T08:11:22;101245.50;;;13.90;100.00
69784;BME280;57054;51.978;4.498;2023-05-09T08:13:48;101237.59;;;13.90;100.00
69784;BME280;57054;51.978;4.498;2023-05-09T08:16:13;101243.75;;;13.90;100.00
69784;BME280;57054;51.978;4.498;2023-05-09T08:18:41;101240.22;;;13.90;100.00
69784;BME280;57054;51.978;4.498;2023-05-09T08:21:06;101228.78;;;13.91;100.00
69784;BME280;57054;51.978;4.498;2023-05-09T08:23:32;101230.50;;;13.92;100.00
69784;BME280;57054;51.978;4.498;2023-05-09T08:25:57;101230.50;;;13.92;100.00
69784;BME280;57054;51.978;4.498;2023-05-09T08:28:23;101220.75;;;13.94;100.00
69784;BME280;57054;51.978;4.498;2023-05-09T08:30:51;101221.59;;;13.94;100.00
69784;BME280;57054;51.978;4.498;2023-05-09T08:33:17;101216.31;;;13.94;100.00
69784;BME280;57054;51.978;4.498;2023-05-09T08:35:42;101212.78;;;13.95;100.00
69784;BME280;57054;51.978;4.498;2023-05-09T08:38:08;101219.72;;;13.96;100.00
69784;BME280;57054;51.978;4.498;2023-05-09T08:40:36;101208.28;;;13.97;100.00
69784;BME280;57054;51.978;4.498;2023-05-09T08:43:05;101209.13;;;13.98;100.00
69784;BME280;57054;51.978;4.498;2023-05-09T08:45:34;101204.72;;;13.98;100.00
69784;BME280;57054;51.978;4.498;2023-05-09T08:48:02;101206.44;;;13.99;100.00
69784;BME280;57054;51.978;4.498;2023-05-09T08:50:28;101201.16;;;13.99;100.00
69784;BME280;57054;51.978;4.498;2023-05-09T08:52:53;101201.16;;;13.99;100.00
69784;BME280;57054;51.978;4.498;2023-05-09T08:55:19;101197.69;;;13.99;100.00
69784;BME280;57054;51.978;4.498;2023-05-09T08:57:45;101195.81;;;14.01;100.00
69784;BME280;57054;51.978;4.498;2023-05-09T09:00:11;101195.81;;;14.01;100.00
69784;BME280;57054;51.978;4.498;2023-05-09T09:02:40;101194.88;;;14.02;100.00
69784;BME280;57054;51.978;4.498;2023-05-09T09:05:06;101190.50;;;14.02;100.00
69784;BME280;57054;51.978;4.498;2023-05-09T09:07:33;101185.13;;;14.04;100.00
69784;BME280;57054;51.978;4.498;2023-05-09T09:10:02;101190.38;;;14.04;100.00
69784;BME280;57054;51.978;4.498;2023-05-09T09:12:28;101186.84;;;14.05;100.00
69784;BME280;57054;51.978;4.498;2023-05-09T09:14:54;101182.47;;;14.04;100.00
69784;BME280;57054;51.978;4.498;2023-05-09T09:17:24;101179.78;;;14.06;100.00
69784;BME280;57054;51.978;4.498;2023-05-09T09:19:58;101182.41;;;14.06;100.00
69784;BME280;57054;51.978;4.498;2023-05-09T09:22:27;101179.78;;;14.06;100.00
69784;BME280;57054;51.978;4.498;2023-05-09T09:24:58;101189.41;;;14.07;100.00
69784;BME280;57054;51.978;4.498;2023-05-09T09:27:24;101179.72;;;14.07;100.00
69784;BME280;57054;51.978;4.498;2023-05-09T09:29:49;101174.38;;;14.09;100.00
69784;BME280;57054;51.978;4.498;2023-05-09T09:32:14;101183.19;;;14.08;100.00
69784;BME280;57054;51.978;4.498;2023-05-09T09:34:42;101167.38;;;14.08;100.00
69784;BME280;57054;51.978;4.498;2023-05-09T09:37:07;101170.00;;;14.08;100.00
69784;BME280;57054;51.978;4.498;2023-05-09T09:39:33;101169.16;;;14.07;100.00
69784;BME280;57054;51.978;4.498;2023-05-09T09:42:09;101170.00;;;14.08;100.00
69784;BME280;57054;51.978;4.498;2023-05-09T09:44:35;101158.56;;;14.09;100.00
69784;BME280;57054;51.978;4.498;2023-05-09T09:47:00;101167.31;;;14.09;100.00
69784;BME280;57054;51.978;4.498;2023-05-09T09:49:26;101168.16;;;14.10;100.00
69784;BME280;57054;51.978;4.498;2023-05-09T09:51:53;101165.53;;;14.10;100.00
69784;BME280;57054;51.978;4.498;2023-05-09T09:54:19;101151.44;;;14.11;100.00
69784;BME280;57054;51.978;4.498;2023-05-09T09:56:49;101160.19;;;14.11;100.00
69784;BME280;57054;51.978;4.498;2023-05-09T09:59:18;101156.69;;;14.11;100.00
69784;BME280;57054;51.978;4.498;2023-05-09T10:02:04;101153.16;;;14.12;100.00
69784;BME280;57054;51.978;4.498;2023-05-09T10:04:37;101149.66;;;14.11;100.00
69784;BME280;57054;51.978;4.498;2023-05-09T10:07:07;101154.84;;;14.13;100.00
69784;BME280;57054;51.978;4.498;2023-05-09T10:09:35;101153.06;;;14.13;100.00
69784;BME280;57054;51.978;4.498;2023-05-09T10:12:06;101149.56;;;14.13;100.00
69784;BME280;57054;51.978;4.498;2023-05-09T10:14:36;101152.22;;;14.13;100.00
69784;BME280;57054;51.978;4.498;2023-05-09T10:17:04;101153.06;;;14.13;100.00
69784;BME280;57054;51.978;4.498;2023-05-09T10:19:29;101142.50;;;14.13;100.00
69784;BME280;57054;51.978;4.498;2023-05-09T10:21:58;101139.81;;;14.15;100.00
69784;BME280;57054;51.978;4.498;2023-05-09T10:27:21;101135.31;;;14.17;100.00
69784;BME280;57054;51.978;4.498;2023-05-09T10:30:17;101138.81;;;14.17;100.00
69784;BME280;57054;51.978;4.498;2023-05-09T10:32:56;101130.16;;;14.15;100.00
69784;BME280;57054;51.978;4.498;2023-05-09T10:35:30;101132.69;;;14.17;100.00
69784;BME280;57054;51.978;4.498;2023-05-09T10:37:58;101128.28;;;14.17;100.00
69784;BME280;57054;51.978;4.498;2023-05-09T10:40:26;101123.00;;;14.17;100.00
69784;BME280;57054;51.978;4.498;2023-05-09T10:42:52;101118.59;;;14.18;100.00
69784;BME280;57054;51.978;4.498;2023-05-09T10:45:19;101115.03;;;14.19;100.00
69784;BME280;57054;51.978;4.498;2023-05-09T10:47:47;101114.09;;;14.20;100.00
69784;BME280;57054;51.978;4.498;2023-05-09T10:50:14;101113.19;;;14.21;100.00
69784;BME280;57054;51.978;4.498;2023-05-09T10:55:55;101105.19;;;14.23;100.00
69784;BME280;57054;51.978;4.498;2023-05-09T10:58:24;101105.19;;;14.23;100.00
69784;BME280;57054;51.978;4.498;2023-05-09T11:00:52;101103.41;;;14.23;100.00
69784;BME280;57054;51.978;4.498;2023-05-09T11:03:18;101096.34;;;14.24;100.00
69784;BME280;57054;51.978;4.498;2023-05-09T11:05:45;101102.47;;;14.24;100.00
69784;BME280;57054;51.978;4.498;2023-05-09T11:08:18;101095.44;;;14.25;100.00
69784;BME280;57054;51.978;4.498;2023-05-09T11:10:44;101091.84;;;14.26;100.00
69784;BME280;57054;51.978;4.498;2023-05-09T11:13:09;101089.22;;;14.26;100.00
69784;BME280;57054;51.978;4.498;2023-05-09T11:16:09;101090.09;;;14.26;100.00
69784;BME280;57054;51.978;4.498;2023-05-09T11:18:48;101085.66;;;14.27;100.00
69784;BME280;57054;51.978;4.498;2023-05-09T11:21:14;101086.50;;;14.27;100.00
69784;BME280;57054;51.978;4.498;2023-05-09T11:23:40;101081.22;;;14.27;100.00
69784;BME280;57054;51.978;4.498;2023-05-09T11:26:06;101081.22;;;14.27;100.00
69784;BME280;57054;51.978;4.498;2023-05-09T11:28:35;101083.78;;;14.29;100.00
69784;BME280;57054;51.978;4.498;2023-05-09T11:31:14;101075.06;;;14.28;100.00
69784;BME280;57054;51.978;4.498;2023-05-09T11:33:41;101075.97;;;14.27;100.00
69784;BME280;57054;51.978;4.498;2023-05-09T11:36:27;101069.84;;;14.27;100.00
69784;BME280;57054;51.978;4.498;2023-05-09T11:39:09;101070.78;;;14.26;100.00
69784;BME280;57054;51.978;4.498;2023-05-09T11:41:45;101065.59;;;14.24;100.00
69784;BME280;57054;51.978;4.498;2023-05-09T11:44:15;101068.22;;;14.24;100.00
69784;BME280;57054;51.978;4.498;2023-05-09T11:46:42;101061.19;;;14.25;100.00
69784;BME280;57054;51.978;4.498;2023-05-09T11:49:08;101069.94;;;14.25;100.00
69784;BME280;57054;51.978;4.498;2023-05-09T11:51:38;101062.19;;;14.22;100.00
69784;BME280;57054;51.978;4.498;2023-05-09T11:54:07;101068.31;;;14.23;100.00
69784;BME280;57054;51.978;4.498;2023-05-09T11:56:34;101061.25;;;14.23;100.00
69784;BME280;57054;51.978;4.498;2023-05-09T11:58:59;101056.00;;;14.23;100.00
69784;BME280;57054;51.978;4.498;2023-05-09T12:01:27;101053.34;;;14.23;100.00
69784;BME280;57054;51.978;4.498;2023-05-09T12:03:52;101044.50;;;14.24;100.00
69784;BME280;57054;51.978;4.498;2023-05-09T12:06:18;101048.09;;;14.23;100.00
69784;BME280;57054;51.978;4.498;2023-05-09T12:08:44;101040.19;;;14.23;100.00
69784;BME280;57054;51.978;4.498;2023-05-09T12:11:11;101041.03;;;14.24;100.00
69784;BME280;57054;51.978;4.498;2023-05-09T12:13:50;101045.47;;;14.23;100.00
69784;BME280;57054;51.978;4.498;2023-05-09T12:16:17;101036.72;;;14.23;100.00
69784;BME280;57054;51.978;4.498;2023-05-09T12:18:47;101035.75;;;14.24;100.00
69784;BME280;57054;51.978;4.498;2023-05-09T12:21:13;101039.25;;;14.24;100.00
69784;BME280;57054;51.978;4.498;2023-05-09T12:23:39;101033.06;;;14.25;100.00
69784;BME280;57054;51.978;4.498;2023-05-09T12:26:04;101029.50;;;14.26;100.00
69784;BME280;57054;51.978;4.498;2023-05-09T12:28:30;101024.22;;;14.26;100.00
69784;BME280;57054;51.978;4.498;2023-05-09T12:30:56;101028.63;;;14.26;100.00
69784;BME280;57054;51.978;4.498;2023-05-09T12:33:22;101025.06;;;14.27;100.00
69784;BME280;57054;51.978;4.498;2023-05-09T12:36:00;101026.75;;;14.28;100.00
69784;BME280;57054;51.978;4.498;2023-05-09T12:38:27;101021.41;;;14.29;100.00
69784;BME280;57054;51.978;4.498;2023-05-09T12:41:04;101023.13;;;14.30;100.00
69784;BME280;57054;51.978;4.498;2023-05-09T12:43:31;101030.97;;;14.32;100.00
69784;BME280;57054;51.978;4.498;2023-05-09T12:45:57;101015.16;;;14.32;100.00
69784;BME280;57054;51.978;4.498;2023-05-09T12:48:23;101015.31;;;14.29;100.00
69784;BME280;57054;51.978;4.498;2023-05-09T12:50:49;101015.22;;;14.30;100.00
69784;BME280;57054;51.978;4.498;2023-05-09T12:53:25;101018.69;;;14.31;100.00